createdAt,value
2018-02-08T00:00:59.089Z,75.26
2018-02-08T00:02:09.267Z,75.45
2018-02-08T00:03:19.382Z,75.36
2018-02-08T00:04:29.567Z,75.45
2018-02-08T00:05:39.494Z,74.98
2018-02-08T00:06:49.362Z,75.26
2018-02-08T00:07:59.478Z,75.55
2018-02-08T00:09:09.591Z,75.36
2018-02-08T00:10:19.711Z,75.26
2018-02-08T00:11:29.836Z,75.55
2018-02-08T00:12:39.950Z,75.64
2018-02-08T00:13:50.062Z,75.42
2018-02-08T00:15:00.192Z,75.23
2018-02-08T00:16:10.030Z,75.45
2018-02-08T00:17:20.144Z,75.23
2018-02-08T00:18:30.001Z,75.32
2018-02-08T00:19:40.156Z,75.32
2018-02-08T00:20:50.313Z,75.42
2018-02-08T00:21:59.789Z,75.13
2018-02-08T00:23:09.939Z,75.32
2018-02-08T00:24:20.086Z,75.32
2018-02-08T00:25:30.201Z,75.04
2018-02-08T00:26:40.055Z,75.32
2018-02-08T00:27:50.186Z,75.32
2018-02-08T00:29:00.450Z,75.23
2018-02-08T00:30:10.588Z,75.32
2018-02-08T00:31:20.851Z,75.51
2018-02-08T00:32:31.034Z,75.23
2018-02-08T00:33:41.287Z,75.23
2018-02-08T00:34:51.482Z,75.51
2018-02-08T00:36:01.624Z,75.23
2018-02-08T00:37:11.530Z,75.7
2018-02-08T00:38:21.645Z,75.51
2018-02-08T00:39:31.612Z,75.42
2018-02-08T00:40:42.710Z,75.23
2018-02-08T00:41:52.896Z,75.36
2018-02-08T00:43:03.067Z,75.32
2018-02-08T00:44:13.289Z,75.36
2018-02-08T00:45:23.122Z,75.26
2018-02-08T00:46:33.242Z,75.07
2018-02-08T00:47:43.357Z,74.79
2018-02-08T00:48:54.464Z,74.79
2018-02-08T00:50:04.562Z,74.51
2018-02-08T00:51:14.669Z,74.41
2018-02-08T00:52:24.916Z,74.41
2018-02-08T00:53:35.084Z,74.41
2018-02-08T00:54:45.900Z,74.88
2018-02-08T00:55:56.018Z,74.6
2018-02-08T00:57:05.875Z,74.79
2018-02-08T00:58:15.986Z,74.32
2018-02-08T00:59:26.168Z,74.51
2018-02-08T01:00:36.394Z,74.04
2018-02-08T01:01:46.546Z,73.81
2018-02-08T01:02:56.642Z,74
2018-02-08T01:04:06.760Z,74.38
2018-02-08T01:05:16.853Z,75.04
2018-02-08T01:06:26.955Z,75.23
2018-02-08T01:07:36.924Z,75.6
2018-02-08T01:08:47.089Z,75.13
2018-02-08T01:09:57.213Z,75.23
2018-02-08T01:11:07.419Z,75.6
2018-02-08T01:12:17.545Z,75.04
2018-02-08T01:13:27.424Z,75.13
2018-02-08T01:14:37.610Z,75.04
2018-02-08T01:15:47.804Z,75.13
2018-02-08T01:16:58.048Z,75.13
2018-02-08T01:18:08.160Z,75.04
2018-02-08T01:19:18.293Z,75.42
2018-02-08T01:20:28.420Z,75.42
2018-02-08T01:21:38.574Z,75.32
2018-02-08T01:22:48.753Z,75.51
2018-02-08T01:23:58.945Z,75.42
2018-02-08T01:25:09.191Z,75.7
2018-02-08T01:26:19.386Z,75.13
2018-02-08T01:27:29.492Z,75.23
2018-02-08T01:28:39.666Z,75.23
2018-02-08T01:29:49.825Z,75.04
2018-02-08T01:30:59.920Z,75.04
2018-02-08T01:32:10.101Z,75.04
2018-02-08T01:33:20.245Z,74.76
2018-02-08T01:34:30.399Z,75.04
2018-02-08T01:35:40.268Z,75.04
2018-02-08T01:36:50.393Z,74.95
2018-02-08T01:38:00.590Z,75.42
2018-02-08T01:39:10.786Z,75.42
2018-02-08T01:40:20.924Z,75.42
2018-02-08T01:41:31.267Z,74.85
2018-02-08T01:42:41.232Z,75.23
2018-02-08T01:43:51.356Z,74.85
2018-02-08T01:45:01.455Z,74.85
2018-02-08T01:46:11.672Z,75.23
2018-02-08T01:47:21.824Z,75.51
2018-02-08T01:48:32.039Z,75.6
2018-02-08T01:49:42.163Z,75.51
2018-02-08T01:50:52.276Z,75.42
2018-02-08T01:52:02.374Z,75.51
2018-02-08T01:53:12.377Z,75.6
2018-02-08T01:54:22.495Z,75.23
2018-02-08T01:55:32.591Z,75.23
2018-02-08T01:56:43.430Z,75.32
2018-02-08T01:57:54.739Z,75.23
2018-02-08T01:59:04.849Z,75.13
2018-02-08T02:00:14.959Z,75.04
2018-02-08T02:01:25.064Z,75.04
2018-02-08T02:02:35.318Z,74.76
2018-02-08T02:03:44.902Z,75.04
2018-02-08T02:04:54.995Z,74.95
2018-02-08T02:06:04.977Z,74.95
2018-02-08T02:07:15.222Z,75.23
2018-02-08T02:08:25.388Z,75.6
2018-02-08T02:09:35.236Z,75.42
2018-02-08T02:10:45.350Z,75.51
2018-02-08T02:11:55.599Z,75.42
2018-02-08T02:13:05.705Z,75.42
2018-02-08T02:14:15.971Z,75.23
2018-02-08T02:15:26.209Z,75.23
2018-02-08T02:16:36.444Z,75.42
2018-02-08T02:17:46.632Z,75.32
2018-02-08T02:18:56.751Z,75.42
2018-02-08T02:20:06.703Z,75.42
2018-02-08T02:21:16.829Z,75.42
2018-02-08T02:22:26.743Z,75.04
2018-02-08T02:23:36.912Z,75.32
2018-02-08T02:24:47.038Z,75.42
2018-02-08T02:25:56.877Z,75.42
2018-02-08T02:27:07.037Z,75.51
2018-02-08T02:28:17.306Z,75.42
2018-02-08T02:29:27.521Z,75.23
2018-02-08T02:30:38.629Z,75.89
2018-02-08T02:31:48.489Z,75.89
2018-02-08T02:32:59.573Z,75.76
2018-02-08T02:34:09.710Z,76.14
2018-02-08T02:35:19.980Z,76.14
2018-02-08T02:36:30.238Z,76.61
2018-02-08T02:37:39.987Z,76.79
2018-02-08T02:38:50.140Z,76.7
2018-02-08T02:40:00.352Z,76.61
2018-02-08T02:41:10.583Z,76.51
2018-02-08T02:42:20.765Z,76.61
2018-02-08T02:43:30.934Z,76.61
2018-02-08T02:44:41.063Z,76.79
2018-02-08T02:45:51.162Z,76.61
2018-02-08T02:47:01.287Z,76.51
2018-02-08T02:48:11.513Z,76.61
2018-02-08T02:49:21.740Z,76.42
2018-02-08T02:50:32.025Z,76.42
2018-02-08T02:51:42.157Z,76.51
2018-02-08T02:52:52.021Z,76.7
2018-02-08T02:54:02.144Z,76.98
2018-02-08T02:55:12.300Z,76.98
2018-02-08T02:56:22.255Z,77.45
2018-02-08T02:57:32.404Z,77.55
2018-02-08T02:58:43.500Z,77.17
2018-02-08T02:59:53.723Z,76.51
2018-02-08T03:01:03.889Z,77.45
2018-02-08T03:02:13.458Z,77.08
2018-02-08T03:03:23.558Z,76.51
2018-02-08T03:04:33.439Z,77.08
2018-02-08T03:05:43.557Z,76.61
2018-02-08T03:06:53.744Z,76.7
2018-02-08T03:08:03.894Z,76.51
2018-02-08T03:09:14.007Z,76.42
2018-02-08T03:10:23.510Z,76.32
2018-02-08T03:11:33.388Z,76.32
2018-02-08T03:12:43.918Z,76.42
2018-02-08T03:13:54.990Z,76.32
2018-02-08T03:15:05.128Z,76.7
2018-02-08T03:16:15.451Z,76.51
2018-02-08T03:17:25.560Z,76.61
2018-02-08T03:18:35.665Z,76.61
2018-02-08T03:19:45.889Z,76.79
2018-02-08T03:20:56.014Z,77.08
2018-02-08T03:22:06.119Z,77.45
2018-02-08T03:23:16.245Z,77.17
2018-02-08T03:24:26.371Z,77.36
2018-02-08T03:25:36.237Z,77.45
2018-02-08T03:26:46.353Z,77.36
2018-02-08T03:27:57.622Z,77.26
2018-02-08T03:29:07.742Z,77.17
2018-02-08T03:30:17.932Z,77.17
2018-02-08T03:31:28.115Z,76.98
2018-02-08T03:32:38.346Z,77.55
2018-02-08T03:33:48.699Z,77.55
2018-02-08T03:34:58.952Z,77.64
2018-02-08T03:36:09.158Z,77.64
2018-02-08T03:37:19.518Z,77.74
2018-02-08T03:38:29.361Z,77.83
2018-02-08T03:39:39.468Z,78.21
2018-02-08T03:40:49.438Z,78.12
2018-02-08T03:41:59.379Z,77.83
2018-02-08T03:43:09.635Z,77.64
2018-02-08T03:44:20.711Z,78.02
2018-02-08T03:45:30.826Z,77.83
2018-02-08T03:46:41.232Z,78.02
2018-02-08T03:47:51.427Z,77.64
2018-02-08T03:49:01.606Z,77.64
2018-02-08T03:50:11.459Z,77.36
2018-02-08T03:51:21.580Z,77.55
2018-02-08T03:52:31.701Z,77.36
2018-02-08T03:53:42.113Z,77.17
2018-02-08T03:54:51.968Z,77.26
2018-02-08T03:56:02.065Z,77.17
2018-02-08T03:57:11.904Z,77.36
2018-02-08T03:58:22.022Z,77.45
2018-02-08T03:59:32.129Z,77.36
2018-02-08T04:00:42.310Z,76.98
2018-02-08T04:01:52.432Z,77.55
2018-02-08T04:03:02.523Z,77.55
2018-02-08T04:04:12.651Z,77.64
2018-02-08T04:05:22.513Z,77.17
2018-02-08T04:06:32.612Z,77.26
2018-02-08T04:07:42.463Z,77.08
2018-02-08T04:08:52.582Z,77.36
2018-02-08T04:10:02.760Z,77.55
2018-02-08T04:11:12.866Z,77.17
2018-02-08T04:12:23.145Z,77.55
2018-02-08T04:13:33.341Z,77.45
2018-02-08T04:14:43.565Z,77.36
2018-02-08T04:15:53.780Z,77.08
2018-02-08T04:17:03.900Z,76.89
2018-02-08T04:18:14.076Z,77.26
2018-02-08T04:19:24.259Z,77.08
2018-02-08T04:20:34.494Z,77.17
2018-02-08T04:21:44.659Z,77.36
2018-02-08T04:22:54.761Z,77.08
2018-02-08T04:24:04.867Z,76.51
2018-02-08T04:25:14.988Z,77.45
2018-02-08T04:26:25.136Z,77.17
2018-02-08T04:27:34.990Z,77.36
2018-02-08T04:28:45.302Z,77.26
2018-02-08T04:29:55.449Z,77.17
2018-02-08T04:31:05.348Z,77.64
2018-02-08T04:32:15.451Z,77.55
2018-02-08T04:33:25.545Z,77.64
2018-02-08T04:34:35.510Z,77.55
2018-02-08T04:35:45.647Z,77.55
2018-02-08T04:36:55.260Z,77.64
2018-02-08T04:38:05.175Z,77.45
2018-02-08T04:39:15.360Z,77.74
2018-02-08T04:40:25.596Z,77.64
2018-02-08T04:41:35.734Z,77.55
2018-02-08T04:42:45.919Z,77.55
2018-02-08T04:43:55.780Z,77.74
2018-02-08T04:45:05.712Z,77.36
2018-02-08T04:46:15.689Z,77.45
2018-02-08T04:47:25.202Z,77.74
2018-02-08T04:48:35.329Z,77.93
2018-02-08T04:49:45.474Z,78.02
2018-02-08T04:50:55.587Z,77.83
2018-02-08T04:52:05.772Z,78.12
2018-02-08T04:53:15.625Z,77.83
2018-02-08T04:54:25.735Z,78.02
2018-02-08T04:55:35.880Z,77.83
2018-02-08T04:56:46.101Z,77.83
2018-02-08T04:57:56.340Z,77.83
2018-02-08T04:59:07.475Z,78.4
2018-02-08T05:00:17.631Z,78.59
2018-02-08T05:01:27.739Z,78.12
2018-02-08T05:02:38.838Z,78.31
2018-02-08T05:03:49.001Z,78.4
2018-02-08T05:04:59.126Z,78.5
2018-02-08T05:06:09.531Z,78.5
2018-02-08T05:07:19.741Z,78.68
2018-02-08T05:08:29.966Z,78.4
2018-02-08T05:09:40.206Z,78.4
2018-02-08T05:10:50.351Z,78.12
2018-02-08T05:12:00.567Z,78.21
2018-02-08T05:13:10.717Z,78.31
2018-02-08T05:14:20.976Z,77.55
2018-02-08T05:15:31.116Z,78.02
2018-02-08T05:16:41.383Z,78.12
2018-02-08T05:17:51.639Z,77.83
2018-02-08T05:19:01.496Z,77.36
2018-02-08T05:20:11.652Z,77.45
2018-02-08T05:21:21.794Z,77.36
2018-02-08T05:22:31.999Z,77.64
2018-02-08T05:23:42.223Z,77.64
2018-02-08T05:24:52.071Z,77.36
2018-02-08T05:26:02.203Z,77.36
2018-02-08T05:27:12.360Z,77.74
2018-02-08T05:28:22.561Z,77.64
2018-02-08T05:29:32.787Z,77.64
2018-02-08T05:30:42.901Z,78.02
2018-02-08T05:31:52.658Z,77.93
2018-02-08T05:33:02.997Z,77.93
2018-02-08T05:34:13.212Z,77.83
2018-02-08T05:35:23.331Z,78.12
2018-02-08T05:36:33.461Z,78.12
2018-02-08T05:37:43.565Z,78.02
2018-02-08T05:38:53.726Z,77.93
2018-02-08T05:40:03.845Z,77.83
2018-02-08T05:41:14.062Z,77.83
2018-02-08T05:42:24.192Z,78.02
2018-02-08T05:43:34.486Z,77.74
2018-02-08T05:44:44.681Z,77.93
2018-02-08T05:45:54.858Z,78.12
2018-02-08T05:47:05.982Z,77.93
2018-02-08T05:48:16.096Z,77.93
2018-02-08T05:49:26.197Z,77.83
2018-02-08T05:50:36.332Z,78.68
2018-02-08T05:51:46.606Z,78.02
2018-02-08T05:52:56.832Z,78.5
2018-02-08T05:54:07.936Z,77.93
2018-02-08T05:55:18.100Z,77.83
2018-02-08T05:56:29.186Z,77.93
2018-02-08T05:57:38.963Z,78.12
2018-02-08T05:58:49.101Z,78.12
2018-02-08T05:59:59.206Z,77.83
2018-02-08T06:01:09.309Z,77.8
2018-02-08T06:02:19.430Z,77.61
2018-02-08T06:03:29.533Z,78.17
2018-02-08T06:04:39.675Z,77.89
2018-02-08T06:05:49.427Z,78.45
2018-02-08T06:06:59.311Z,78.45
2018-02-08T06:08:09.417Z,78.55
2018-02-08T06:09:19.548Z,78.64
2018-02-08T06:10:29.696Z,78.92
2018-02-08T06:11:39.898Z,78.92
2018-02-08T06:12:50.052Z,78.83
2018-02-08T06:14:00.231Z,78.74
2018-02-08T06:15:10.340Z,78.64
2018-02-08T06:16:20.475Z,78.83
2018-02-08T06:17:30.571Z,78.55
2018-02-08T06:18:40.738Z,78.83
2018-02-08T06:19:50.936Z,78.83
2018-02-08T06:21:01.058Z,78.74
2018-02-08T06:22:11.162Z,78.74
2018-02-08T06:23:21.290Z,78.92
2018-02-08T06:24:31.432Z,78.74
2018-02-08T06:25:41.316Z,78.64
2018-02-08T06:26:51.432Z,78.92
2018-02-08T06:28:01.540Z,78.83
2018-02-08T06:29:11.680Z,78.74
2018-02-08T06:30:21.938Z,78.74
2018-02-08T06:31:32.157Z,78.92
2018-02-08T06:32:42.308Z,79.11
2018-02-08T06:33:52.225Z,78.5
2018-02-08T06:35:02.330Z,78.59
2018-02-08T06:36:12.528Z,78.36
2018-02-08T06:37:22.701Z,78.08
2018-02-08T06:38:32.881Z,78.17
2018-02-08T06:39:43.342Z,78.45
2018-02-08T06:40:53.537Z,78.45
2018-02-08T06:42:03.425Z,78.55
2018-02-08T06:43:13.286Z,78.36
2018-02-08T06:44:23.407Z,78.36
2018-02-08T06:45:33.252Z,78.45
2018-02-08T06:46:43.425Z,78.36
2018-02-08T06:47:53.557Z,78.45
2018-02-08T06:49:03.711Z,78.36
2018-02-08T06:50:13.839Z,78.55
2018-02-08T06:51:23.692Z,78.64
2018-02-08T06:52:33.823Z,78.27
2018-02-08T06:53:44.037Z,78.45
2018-02-08T06:54:53.911Z,78.64
2018-02-08T06:56:04.032Z,78.45
2018-02-08T06:57:14.145Z,78.45
2018-02-08T06:58:24.297Z,78.45
2018-02-08T06:59:34.721Z,78.45
2018-02-08T07:00:45.066Z,78.55
2018-02-08T07:01:55.175Z,78.74
2018-02-08T07:03:05.532Z,78.55
2018-02-08T07:04:15.653Z,78.55
2018-02-08T07:05:25.801Z,78.55
2018-02-08T07:06:35.541Z,78.45
2018-02-08T07:07:45.682Z,78.55
2018-02-08T07:08:55.956Z,78.74
2018-02-08T07:10:05.837Z,78.27
2018-02-08T07:11:15.951Z,78.55
2018-02-08T07:12:26.077Z,78.17
2018-02-08T07:13:35.865Z,78.08
2018-02-08T07:14:46.017Z,78.12
2018-02-08T07:15:56.151Z,78.02
2018-02-08T07:17:06.292Z,77.64
2018-02-08T07:18:15.924Z,77.93
2018-02-08T07:19:27.022Z,77.36
2018-02-08T07:20:37.197Z,77.36
2018-02-08T07:21:47.329Z,76.74
2018-02-08T07:22:57.445Z,75.6
2018-02-08T07:24:07.602Z,75.6
2018-02-08T07:25:17.755Z,75.04
2018-02-08T07:26:27.926Z,74.04
2018-02-08T07:27:38.042Z,73.18
2018-02-08T07:28:48.352Z,73.47
2018-02-08T07:29:58.128Z,72.52
2018-02-08T07:31:08.291Z,72.43
2018-02-08T07:32:18.149Z,72.24
2018-02-08T07:33:28.016Z,71.77
2018-02-08T07:34:38.222Z,71.52
2018-02-08T07:35:48.355Z,71.23
2018-02-08T07:36:58.450Z,71.3
2018-02-08T07:38:08.596Z,71.04
2018-02-08T07:39:18.752Z,70.48
2018-02-08T07:40:28.963Z,70.01
2018-02-08T07:41:39.109Z,69.06
2018-02-08T07:42:49.268Z,69.47
2018-02-08T07:43:59.433Z,69
2018-02-08T07:45:09.551Z,68.52
2018-02-08T07:46:19.696Z,67.68
2018-02-08T07:47:29.562Z,67.33
2018-02-08T07:48:39.662Z,67.24
2018-02-08T07:49:49.821Z,66.86
2018-02-08T07:51:00.542Z,66.09
2018-02-08T07:52:10.757Z,65.91
2018-02-08T07:53:20.915Z,65.34
2018-02-08T07:54:30.786Z,65.06
2018-02-08T07:55:40.641Z,64.9
2018-02-08T07:56:50.759Z,63.95
2018-02-08T07:58:00.638Z,63.85
2018-02-08T07:59:10.777Z,63.85
2018-02-08T08:00:20.640Z,63.1
2018-02-08T08:01:30.780Z,62.56
2018-02-08T08:02:40.892Z,62.56
2018-02-08T08:03:51.014Z,61.99
2018-02-08T08:05:00.934Z,60.95
2018-02-08T08:06:11.070Z,60.57
2018-02-08T08:07:21.188Z,60.57
2018-02-08T08:08:31.445Z,60.19
2018-02-08T08:09:41.226Z,59.75
2018-02-08T08:10:51.378Z,59.27
2018-02-08T08:12:01.517Z,58.7
2018-02-08T08:13:11.432Z,59.08
2018-02-08T08:14:21.327Z,58.89
2018-02-08T08:15:31.451Z,58.7
2018-02-08T08:16:41.574Z,58.26
2018-02-08T08:17:51.692Z,57.98
2018-02-08T08:19:01.807Z,57.5
2018-02-08T08:20:11.439Z,57.31
2018-02-08T08:21:21.571Z,56.74
2018-02-08T08:22:31.506Z,56.08
2018-02-08T08:23:41.445Z,56.58
2018-02-08T08:24:51.307Z,56.39
2018-02-08T08:26:01.426Z,56.1
2018-02-08T08:27:11.604Z,55.44
2018-02-08T08:28:21.713Z,54.97
2018-02-08T08:29:31.858Z,54.33
2018-02-08T08:30:42.120Z,54.05
2018-02-08T08:31:52.350Z,53.57
2018-02-08T08:33:02.252Z,53.66
2018-02-08T08:34:12.380Z,53.47
2018-02-08T08:35:22.505Z,52.45
2018-02-08T08:36:32.463Z,52.36
2018-02-08T08:37:42.575Z,52.08
2018-02-08T08:38:52.705Z,51.89
2018-02-08T08:40:02.703Z,51.7
2018-02-08T08:41:12.847Z,51.15
2018-02-08T08:42:22.996Z,50.96
2018-02-08T08:43:33.132Z,50.58
2018-02-08T08:44:43.354Z,49.82
2018-02-08T08:45:53.584Z,49.54
2018-02-08T08:47:03.757Z,49.18
2018-02-08T08:48:13.620Z,48.8
2018-02-08T08:49:23.766Z,48.42
2018-02-08T08:50:34.015Z,48.51
2018-02-08T08:51:44.172Z,47.97
2018-02-08T08:52:54.413Z,47.02
2018-02-08T08:54:05.604Z,47.11
2018-02-08T08:55:15.497Z,46.73
2018-02-08T08:56:25.639Z,46.35
2018-02-08T08:57:35.516Z,45.97
2018-02-08T08:58:45.661Z,45.49
2018-02-08T08:59:55.825Z,45.8
2018-02-08T09:01:06.044Z,44.94
2018-02-08T09:02:17.185Z,44.85
2018-02-08T09:03:27.362Z,44.66
2018-02-08T09:04:37.536Z,44.18
2018-02-08T09:05:47.716Z,44.09
2018-02-08T09:06:57.329Z,43.82
2018-02-08T09:08:07.455Z,43.16
2018-02-08T09:09:17.600Z,43.35
2018-02-08T09:10:27.781Z,43.06
2018-02-08T09:11:37.912Z,42.96
2018-02-08T09:12:48.063Z,42.49
2018-02-08T09:13:58.201Z,42.01
2018-02-08T09:15:08.332Z,41.82
2018-02-08T09:16:18.593Z,41.72
2018-02-08T09:17:28.748Z,41.82
2018-02-08T09:18:38.968Z,41.92
2018-02-08T09:19:49.107Z,42.49
2018-02-08T09:20:59.252Z,42.3
2018-02-08T09:22:09.397Z,42.4
2018-02-08T09:23:19.538Z,41.82
2018-02-08T09:24:29.680Z,41.65
2018-02-08T09:25:39.846Z,41.65
2018-02-08T09:26:49.514Z,41.39
2018-02-08T09:27:59.405Z,40.53
2018-02-08T09:29:09.555Z,39.98
2018-02-08T09:30:19.696Z,39.4
2018-02-08T09:31:29.835Z,39.12
2018-02-08T09:32:39.976Z,39.12
2018-02-08T09:33:50.125Z,39.02
2018-02-08T09:35:00.253Z,37.9
2018-02-08T09:36:10.378Z,37.13
2018-02-08T09:37:20.537Z,37.32
2018-02-08T09:38:30.752Z,37.99
2018-02-08T09:39:40.880Z,37.59
2018-02-08T09:40:51.059Z,37.9
2018-02-08T09:42:00.962Z,37.13
2018-02-08T09:43:11.149Z,36.94
2018-02-08T09:44:21.027Z,36.1
2018-02-08T09:45:31.186Z,35.7
2018-02-08T09:46:42.311Z,36.08
2018-02-08T09:47:52.474Z,36.27
2018-02-08T09:49:02.633Z,36.08
2018-02-08T09:50:12.780Z,36.16
2018-02-08T09:51:23.016Z,35.97
2018-02-08T09:52:33.231Z,35.97
2018-02-08T09:53:43.417Z,35.97
2018-02-08T09:54:53.561Z,36.07
2018-02-08T09:56:03.706Z,36.07
2018-02-08T09:57:13.852Z,36.16
2018-02-08T09:58:24.028Z,36.35
2018-02-08T09:59:34.160Z,36.35
2018-02-08T10:00:44.418Z,36.25
2018-02-08T10:01:54.677Z,36.33
2018-02-08T10:03:04.853Z,36.52
2018-02-08T10:04:15.020Z,36.81
2018-02-08T10:05:24.826Z,36.81
2018-02-08T10:06:34.958Z,36.81
2018-02-08T10:07:45.188Z,37.29
2018-02-08T10:08:55.488Z,37.1
2018-02-08T10:10:05.754Z,36.73
2018-02-08T10:11:15.965Z,37.21
2018-02-08T10:12:26.867Z,36.81
2018-02-08T10:13:37.003Z,36.25
2018-02-08T10:14:47.165Z,36.33
2018-02-08T10:15:57.330Z,37.19
2018-02-08T10:17:07.532Z,36.81
2018-02-08T10:18:17.690Z,36.81
2018-02-08T10:19:27.888Z,36.35
2018-02-08T10:20:38.058Z,36.08
2018-02-08T10:21:47.975Z,35.6
2018-02-08T10:22:58.195Z,34.86
2018-02-08T10:24:08.359Z,33.81
2018-02-08T10:25:18.245Z,34.19
2018-02-08T10:26:28.387Z,34.46
2018-02-08T10:27:38.522Z,34.55
2018-02-08T10:28:48.715Z,34.48
2018-02-08T10:29:58.702Z,33.91
2018-02-08T10:31:08.863Z,33.35
2018-02-08T10:32:19.032Z,32.49
2018-02-08T10:33:29.189Z,31.92
2018-02-08T10:34:39.336Z,31.72
2018-02-08T10:35:49.509Z,31.51
2018-02-08T10:36:59.858Z,31.99
2018-02-08T10:38:10.095Z,32.74
2018-02-08T10:39:20.333Z,32.74
2018-02-08T10:40:30.518Z,32.84
2018-02-08T10:41:40.731Z,32.93
2018-02-08T10:42:50.915Z,33.03
2018-02-08T10:44:00.840Z,33.87
2018-02-08T10:45:10.976Z,33.89
2018-02-08T10:46:21.134Z,33.03
2018-02-08T10:47:31.289Z,32.76
2018-02-08T10:48:41.122Z,32.57
2018-02-08T10:49:51.278Z,32.18
2018-02-08T10:51:01.227Z,32.28
2018-02-08T10:52:11.387Z,32.47
2018-02-08T10:53:21.654Z,32.57
2018-02-08T10:54:31.818Z,32.47
2018-02-08T10:55:41.970Z,32.55
2018-02-08T10:56:52.100Z,32.07
2018-02-08T10:58:02.266Z,31.79
2018-02-08T10:59:12.413Z,32.07
2018-02-08T11:00:22.622Z,32.65
2018-02-08T11:01:32.771Z,32.84
2018-02-08T11:02:42.924Z,32.66
2018-02-08T11:03:53.071Z,31.82
2018-02-08T11:05:03.251Z,32.01
2018-02-08T11:06:13.413Z,31.05
2018-02-08T11:07:23.585Z,30.94
2018-02-08T11:08:33.861Z,31.61
2018-02-08T11:09:44.021Z,32.09
2018-02-08T11:10:54.331Z,31.9
2018-02-08T11:12:04.600Z,31.99
2018-02-08T11:13:14.778Z,31.82
2018-02-08T11:14:24.956Z,31.8
2018-02-08T11:15:35.129Z,31.92
2018-02-08T11:16:45.375Z,32.01
2018-02-08T11:17:55.332Z,31.92
2018-02-08T11:19:05.488Z,31.72
2018-02-08T11:20:15.139Z,31.93
2018-02-08T11:21:25.380Z,31.93
2018-02-08T11:22:35.286Z,32.12
2018-02-08T11:23:45.148Z,31.74
2018-02-08T11:24:55.306Z,31.35
2018-02-08T11:26:05.519Z,30.21
2018-02-08T11:27:15.751Z,30.02
2018-02-08T11:28:25.913Z,29.44
2018-02-08T11:29:36.066Z,30.1
2018-02-08T11:30:46.234Z,30.29
2018-02-08T11:31:56.401Z,30.46
2018-02-08T11:33:06.287Z,31.12
2018-02-08T11:34:16.430Z,31.69
2018-02-08T11:35:26.576Z,31.88
2018-02-08T11:36:36.507Z,31.71
2018-02-08T11:37:46.643Z,31.8
2018-02-08T11:38:56.927Z,31.23
2018-02-08T11:40:07.086Z,31.13
2018-02-08T11:41:17.253Z,31.88
2018-02-08T11:42:27.478Z,31.69
2018-02-08T11:43:37.674Z,31.69
2018-02-08T11:44:47.829Z,31.4
2018-02-08T11:45:58.021Z,31.6
2018-02-08T11:47:08.280Z,31.98
2018-02-08T11:48:18.541Z,31.77
2018-02-08T11:49:28.763Z,31.96
2018-02-08T11:50:38.901Z,32.44
2018-02-08T11:51:49.150Z,32.53
2018-02-08T11:52:59.328Z,31.96
2018-02-08T11:54:09.468Z,32.24
2018-02-08T11:55:19.394Z,32.53
2018-02-08T11:56:29.582Z,32.63
2018-02-08T11:57:39.733Z,33.11
2018-02-08T11:58:49.919Z,32.82
2018-02-08T12:00:00.145Z,32.36
2018-02-08T12:01:10.339Z,31.9
2018-02-08T12:02:20.576Z,32.18
2018-02-08T12:03:30.855Z,31.9
2018-02-08T12:04:41.054Z,31.9
2018-02-08T12:05:51.316Z,31.42
2018-02-08T12:07:01.255Z,30.75
2018-02-08T12:08:11.425Z,30.56
2018-02-08T12:09:21.618Z,30.46
2018-02-08T12:10:31.507Z,30.85
2018-02-08T12:11:41.641Z,30.46
2018-02-08T12:12:51.778Z,30.46
2018-02-08T12:14:01.964Z,30.37
2018-02-08T12:15:12.125Z,30.66
2018-02-08T12:16:22.274Z,31.12
2018-02-08T12:17:32.469Z,30.85
2018-02-08T12:18:42.381Z,30.83
2018-02-08T12:19:53.519Z,31.04
2018-02-08T12:21:03.663Z,31.04
2018-02-08T12:22:13.981Z,30.85
2018-02-08T12:23:24.232Z,30.85
2018-02-08T12:24:34.464Z,30.75
2018-02-08T12:25:44.752Z,30.66
2018-02-08T12:26:54.921Z,30.37
2018-02-08T12:28:05.118Z,30.18
2018-02-08T12:29:14.917Z,30.56
2018-02-08T12:30:25.066Z,30.85
2018-02-08T12:31:35.211Z,30.85
2018-02-08T12:32:45.370Z,31.04
2018-02-08T12:33:55.565Z,31.04
2018-02-08T12:35:05.741Z,30.85
2018-02-08T12:36:15.878Z,30.46
2018-02-08T12:37:26.029Z,30.27
2018-02-08T12:38:36.199Z,30.66
2018-02-08T12:39:46.348Z,30.56
2018-02-08T12:40:56.549Z,30.56
2018-02-08T12:42:06.780Z,30.46
2018-02-08T12:43:16.778Z,30.46
2018-02-08T12:44:26.957Z,30.46
2018-02-08T12:45:37.101Z,30.27
2018-02-08T12:46:47.030Z,30.45
2018-02-08T12:47:57.246Z,30.26
2018-02-08T12:49:07.501Z,29.88
2018-02-08T12:50:17.470Z,30.26
2018-02-08T12:51:27.630Z,30.82
2018-02-08T12:52:37.844Z,30.72
2018-02-08T12:53:48.021Z,30.72
2018-02-08T12:54:58.182Z,30.99
2018-02-08T12:56:08.127Z,31.66
2018-02-08T12:57:18.270Z,31.95
2018-02-08T12:58:28.416Z,31.66
2018-02-08T12:59:38.572Z,31.95
2018-02-08T13:00:48.494Z,32.14
2018-02-08T13:01:58.701Z,32.61
2018-02-08T13:03:08.959Z,32.42
2018-02-08T13:04:19.150Z,32.52
2018-02-08T13:05:29.298Z,31.95
2018-02-08T13:06:39.481Z,31.85
2018-02-08T13:07:49.650Z,31.47
2018-02-08T13:08:59.938Z,31.76
2018-02-08T13:10:10.162Z,31.85
2018-02-08T13:11:20.431Z,32.6
2018-02-08T13:12:30.605Z,32.52
2018-02-08T13:13:40.923Z,32.79
2018-02-08T13:14:50.838Z,32.79
2018-02-08T13:16:00.721Z,32.79
2018-02-08T13:17:10.859Z,32.88
2018-02-08T13:18:21.019Z,32.98
2018-02-08T13:19:31.179Z,33.26
2018-02-08T13:20:41.320Z,33.82
2018-02-08T13:21:51.480Z,33.82
2018-02-08T13:23:01.673Z,34.11
2018-02-08T13:24:11.838Z,34.38
2018-02-08T13:25:21.986Z,34.66
2018-02-08T13:26:32.319Z,34.66
2018-02-08T13:27:42.537Z,35.33
2018-02-08T13:28:52.825Z,35.52
2018-02-08T13:30:03.960Z,35.8
2018-02-08T13:31:14.176Z,35.88
2018-02-08T13:32:25.326Z,36.08
2018-02-08T13:33:35.236Z,35.97
2018-02-08T13:34:45.152Z,36.16
2018-02-08T13:35:55.289Z,36.45
2018-02-08T13:37:05.480Z,37.02
2018-02-08T13:38:15.607Z,36.83
2018-02-08T13:39:26.730Z,37.19
2018-02-08T13:40:36.944Z,37.38
2018-02-08T13:41:47.113Z,37.86
2018-02-08T13:42:57.316Z,38.24
2018-02-08T13:44:07.530Z,38.24
2018-02-08T13:45:17.722Z,38.62
2018-02-08T13:46:27.636Z,39
2018-02-08T13:47:37.809Z,38.9
2018-02-08T13:48:47.711Z,39.19
2018-02-08T13:49:57.840Z,39.38
2018-02-08T13:51:08.009Z,39.36
2018-02-08T13:52:18.181Z,39.26
2018-02-08T13:53:28.560Z,39.93
2018-02-08T13:54:38.700Z,39.74
2018-02-08T13:55:48.572Z,40.41
2018-02-08T13:56:58.697Z,40.2
2018-02-08T13:58:08.827Z,40.58
2018-02-08T13:59:18.976Z,40.29
2018-02-08T14:00:29.199Z,40.86
2018-02-08T14:01:39.397Z,41.34
2018-02-08T14:02:49.604Z,41.72
2018-02-08T14:03:59.535Z,41.79
2018-02-08T14:05:09.699Z,41.31
2018-02-08T14:06:19.842Z,41.69
2018-02-08T14:07:30.021Z,42.17
2018-02-08T14:08:40.174Z,42.46
2018-02-08T14:09:50.504Z,42.27
2018-02-08T14:11:00.718Z,42.36
2018-02-08T14:12:10.994Z,42.55
2018-02-08T14:13:21.145Z,42.83
2018-02-08T14:14:31.138Z,42.93
2018-02-08T14:15:41.280Z,42.93
2018-02-08T14:16:51.630Z,42.83
2018-02-08T14:18:01.770Z,42.93
2018-02-08T14:19:12.898Z,43.12
2018-02-08T14:20:23.042Z,43.12
2018-02-08T14:21:33.243Z,43.21
2018-02-08T14:22:44.425Z,43.29
2018-02-08T14:23:54.598Z,43.76
2018-02-08T14:25:04.468Z,43.76
2018-02-08T14:26:14.632Z,43.48
2018-02-08T14:27:24.860Z,43.67
2018-02-08T14:28:35.060Z,43.86
2018-02-08T14:29:45.199Z,43.86
2018-02-08T14:30:55.360Z,44.14
2018-02-08T14:32:05.526Z,44.53
2018-02-08T14:33:15.833Z,44.81
2018-02-08T14:34:26.036Z,44.81
2018-02-08T14:35:36.198Z,44.81
2018-02-08T14:36:46.337Z,44.71
2018-02-08T14:37:56.479Z,44.71
2018-02-08T14:39:06.599Z,44.9
2018-02-08T14:40:16.767Z,44.62
2018-02-08T14:41:26.636Z,44.9
2018-02-08T14:42:36.830Z,45
2018-02-08T14:43:46.689Z,45.28
2018-02-08T14:44:56.820Z,44.9
2018-02-08T14:46:06.966Z,44.81
2018-02-08T14:47:17.200Z,44.43
2018-02-08T14:48:27.336Z,44.43
2018-02-08T14:49:37.483Z,44.62
2018-02-08T14:50:47.727Z,44.6
2018-02-08T14:51:58.023Z,44.88
2018-02-08T14:53:08.177Z,44.88
2018-02-08T14:54:18.374Z,45.26
2018-02-08T14:55:28.579Z,45.54
2018-02-08T14:56:38.457Z,45.26
2018-02-08T14:57:49.616Z,45.36
2018-02-08T14:59:00.724Z,45.64
2018-02-08T15:00:10.900Z,45.45
2018-02-08T15:01:21.053Z,45.45
2018-02-08T15:02:31.182Z,45.83
2018-02-08T15:03:41.331Z,45.83
2018-02-08T15:04:51.362Z,45.54
2018-02-08T15:06:01.550Z,45.54